Time;durP1;ratioP1;P1;durP2;ratioP2;P2;SDS_P1;SDS_P2;PMS_P1;PMS_P2;Temp;Humidity;BMP_temperature;BMP_pressure;BME280_temperature;BME280_humidity;BME280_pressure;Samples;Min_cycle;Max_cycle;Signal;HPM_P1;HPM_P2
2022/11/26 00:00:49;;;;;;;1.50;1.40;;;;;;;6.76;79.34;98703.53;4995589;28;20279;-63
2022/11/26 00:03:15;;;;;;;1.67;1.58;;;;;;;6.79;78.97;98704.22;4995405;28;20176;-63
2022/11/26 00:05:44;;;;;;;1.88;1.77;;;;;;;6.99;78.22;98706.63;4995620;28;20168;-63
2022/11/26 00:08:21;;;;;;;2.20;2.00;;;;;;;7.11;76.67;98706.03;4995557;28;20175;-63
2022/11/26 00:10:50;;;;;;;1.70;1.60;;;;;;;7.25;75.52;98710.47;4995593;28;20171;-63
2022/11/26 00:13:33;;;;;;;2.00;1.90;;;;;;;7.10;75.87;98703.53;4995774;28;20640;-63
2022/11/26 00:15:58;;;;;;;1.77;1.67;;;;;;;7.21;75.45;98704.66;4995549;28;20217;-64
2022/11/26 00:18:25;;;;;;;1.90;1.80;;;;;;;6.95;76.63;98705.13;4995055;28;20735;-63
2022/11/26 00:20:55;;;;;;;2.45;1.88;;;;;;;6.96;76.83;98705.94;4995196;28;20211;-64
2022/11/26 00:23:25;;;;;;;2.17;2.05;;;;;;;6.85;78.13;98709.06;4993720;28;20714;-63
2022/11/26 00:26:00;;;;;;;2.33;1.70;;;;;;;6.84;78.96;98706.56;4995027;28;20176;-63
2022/11/26 00:28:31;;;;;;;1.67;1.58;;;;;;;6.82;79.12;98709.19;4993889;28;20233;-63
2022/11/26 00:30:59;;;;;;;1.75;1.65;;;;;;;6.67;80.31;98709.97;4995155;28;20184;-63
2022/11/26 00:33:26;;;;;;;2.00;1.70;;;;;;;6.71;78.86;98708.06;4995134;28;20657;-63
2022/11/26 00:35:56;;;;;;;2.92;1.85;;;;;;;6.85;78.58;98715.94;4995048;28;20556;-63
2022/11/26 00:38:22;;;;;;;1.90;1.80;;;;;;;6.72;78.57;98718.28;4995047;28;20195;-63
2022/11/26 00:40:48;;;;;;;2.60;2.03;;;;;;;6.68;79.47;98721.06;4994643;28;20719;-63
2022/11/26 00:43:15;;;;;;;2.38;2.22;;;;;;;6.79;79.68;98708.53;4994676;28;20203;-63
2022/11/26 00:45:41;;;;;;;1.50;1.40;;;;;;;6.89;78.37;98710.59;4994915;28;20184;-63
2022/11/26 00:48:06;;;;;;;1.77;1.67;;;;;;;6.88;78.12;98713.22;4994555;28;20168;-63
2022/11/26 00:50:41;;;;;;;2.00;1.90;;;;;;;6.99;77.53;98716.09;4994528;28;20172;-63
2022/11/26 00:53:11;;;;;;;1.70;1.60;;;;;;;7.13;75.97;98713.66;4994797;28;20164;-63
2022/11/26 00:55:44;;;;;;;1.60;1.50;;;;;;;7.17;76.99;98721.16;4994971;28;20207;-63
2022/11/26 00:58:29;;;;;;;3.95;2.20;;;;;;;7.14;77.37;98721.31;4994699;28;20251;-63
2022/11/26 01:00:58;;;;;;;2.00;1.90;;;;;;;7.00;77.55;98712.63;4993989;28;20207;-63
2022/11/26 01:03:24;;;;;;;1.70;1.60;;;;;;;7.04;78.25;98714.97;4994239;28;20663;-63
2022/11/26 01:05:52;;;;;;;2.03;1.90;;;;;;;7.08;78.25;98716.47;4994197;28;20573;-63
2022/11/26 01:08:34;;;;;;;1.80;1.70;;;;;;;7.03;78.43;98717.59;4994442;28;20237;-63
2022/11/26 01:11:01;;;;;;;2.70;1.70;;;;;;;7.07;76.87;98714.81;4992960;28;20168;-63
2022/11/26 01:13:28;;;;;;;2.13;1.60;;;;;;;7.11;77.76;98716.31;4994051;28;20226;-63
2022/11/26 01:15:55;;;;;;;1.70;1.60;;;;;;;7.08;78.49;98707.91;4994310;28;20614;-63
2022/11/26 01:18:22;;;;;;;2.45;1.48;;;;;;;7.24;76.70;98709.66;4993986;28;20270;-63
2022/11/26 01:20:47;;;;;;;1.80;1.70;;;;;;;7.25;76.70;98708.75;4994016;28;20214;-63
2022/11/26 01:23:15;;;;;;;1.60;1.50;;;;;;;7.12;77.52;98712.81;4994189;28;20180;-63
2022/11/26 01:25:41;;;;;;;1.77;1.67;;;;;;;7.06;77.98;98707.16;4993870;28;20314;-63
2022/11/26 01:28:12;;;;;;;1.80;1.70;;;;;;;7.04;78.32;98714.16;4994330;28;20563;-63
2022/11/26 01:30:39;;;;;;;3.83;1.75;;;;;;;7.09;77.72;98710.41;4994061;28;20518;-63
2022/11/26 01:33:04;;;;;;;1.70;1.60;;;;;;;7.05;77.75;98705.50;4993967;28;20175;-63
2022/11/26 01:35:30;;;;;;;1.65;1.55;;;;;;;7.07;78.29;98701.97;4993916;28;20175;-63
2022/11/26 01:37:56;;;;;;;1.67;1.58;;;;;;;7.02;77.99;98705.66;4994162;28;20246;-63
2022/11/26 01:40:24;;;;;;;1.95;1.77;;;;;;;7.03;77.42;98707.31;4993519;28;20634;-63
2022/11/26 01:42:54;;;;;;;1.92;1.83;;;;;;;7.09;76.51;98702.69;4993559;28;20208;-63
2022/11/26 01:45:22;;;;;;;2.75;1.75;;;;;;;7.03;76.62;98707.31;4993547;28;20171;-63
2022/11/26 01:47:48;;;;;;;2.38;1.90;;;;;;;6.97;77.06;98710.19;4993428;28;20306;-63
2022/11/26 01:50:33;;;;;;;1.92;1.70;;;;;;;6.83;77.38;98707.47;4993685;28;20325;-62
2022/11/26 01:53:13;;;;;;;1.23;1.23;;;;;;;6.76;77.68;98704.34;4993413;28;20562;-63
2022/11/26 01:55:44;;;;;;;2.88;1.92;;;;;;;6.73;77.59;98712.22;4993607;28;20178;-63
2022/11/26 01:58:14;;;;;;;2.08;1.88;;;;;;;6.58;78.81;98719.84;4993602;28;20172;-63
2022/11/26 02:00:39;;;;;;;2.25;2.00;;;;;;;6.54;78.92;98714.00;4993152;28;20208;-63
2022/11/26 02:03:06;;;;;;;1.80;1.45;;;;;;;6.45;80.21;98717.00;4993250;28;20577;-63
2022/11/26 02:05:41;;;;;;;1.85;1.70;;;;;;;6.34;80.72;98711.53;4993174;28;20263;-62
2022/11/26 02:08:08;;;;;;;3.35;1.50;;;;;;;6.26;81.15;98717.94;4993454;28;20163;-62
2022/11/26 02:10:33;;;;;;;1.58;1.48;;;;;;;6.00;83.60;98711.44;4993120;28;20202;-62
2022/11/26 02:12:59;;;;;;;1.63;1.52;;;;;;;5.92;84.42;98713.53;4993026;28;20668;-63
2022/11/26 02:15:32;;;;;;;1.70;1.60;;;;;;;5.99;82.90;98721.75;4993317;28;20182;-62
2022/11/26 02:18:05;;;;;;;1.60;1.50;;;;;;;5.68;85.42;98724.84;4993276;28;20589;-63
2022/11/26 02:20:43;;;;;;;1.98;1.80;;;;;;;5.59;86.09;98729.56;4992835;28;20706;-62
2022/11/26 02:23:24;;;;;;;1.50;1.40;;;;;;;5.64;85.90;98736.16;4993213;28;20256;-62
2022/11/26 02:26:20;;;;;;;2.17;1.88;;;;;;;5.71;83.35;98745.25;4992840;28;20229;-62
2022/11/26 02:29:15;;;;;;;1.48;1.42;;;;;;;5.81;81.87;98750.84;4992880;28;20203;-62
2022/11/26 02:31:50;;;;;;;2.00;1.90;;;;;;;5.88;80.15;98750.50;4993139;28;20183;-62
2022/11/26 02:34:41;;;;;;;2.88;2.00;;;;;;;5.80;79.99;98744.03;4992836;28;20194;-62
2022/11/26 02:37:21;;;;;;;2.50;2.25;;;;;;;5.71;80.57;98739.28;4992707;28;20178;-62
2022/11/26 02:39:47;;;;;;;2.92;1.80;;;;;;;5.73;80.36;98751.16;4992955;28;20210;-62
2022/11/26 02:42:31;;;;;;;3.55;2.83;;;;;;;5.63;80.96;98752.44;4992722;28;20565;-62
2022/11/26 02:45:04;;;;;;;5.93;3.75;;;;;;;5.61;80.90;98753.41;4993245;28;20155;-62
2022/11/26 02:47:32;;;;;;;3.88;3.15;;;;;;;5.40;81.79;98733.81;4992586;28;20175;-62
2022/11/26 02:50:05;;;;;;;2.60;2.20;;;;;;;5.45;82.03;98749.84;4992605;28;20259;-62
2022/11/26 02:52:33;;;;;;;2.53;2.20;;;;;;;5.37;82.86;98757.84;4995129;28;20613;-62
2022/11/26 02:55:02;;;;;;;2.97;2.33;;;;;;;5.41;82.41;98749.13;4995787;28;20167;-62
2022/11/26 02:57:31;;;;;;;2.40;2.00;;;;;;;5.46;81.96;98759.19;4996616;28;20183;-62
2022/11/26 02:59:56;;;;;;;2.63;2.42;;;;;;;5.44;81.88;98751.59;4996474;28;20746;-62
2022/11/26 03:02:32;;;;;;;2.10;1.98;;;;;;;5.48;81.43;98754.84;4996544;28;20180;-62
2022/11/26 03:05:01;;;;;;;2.35;2.15;;;;;;;5.29;81.99;98743.69;4997065;28;20251;-62
2022/11/26 03:07:29;;;;;;;2.00;1.90;;;;;;;5.31;82.54;98759.84;4996686;28;20182;-62
2022/11/26 03:09:57;;;;;;;2.40;2.20;;;;;;;5.26;83.01;98762.59;4996367;28;20720;-62
2022/11/26 03:12:23;;;;;;;2.53;2.25;;;;;;;5.26;83.04;98762.59;4996297;28;20171;-62
2022/11/26 03:14:49;;;;;;;2.13;1.95;;;;;;;5.24;82.97;98768.72;4996289;28;20200;-62
2022/11/26 03:17:15;;;;;;;2.53;2.42;;;;;;;5.04;83.92;98751.59;4996261;28;20688;-62
2022/11/26 03:19:40;;;;;;;3.42;2.60;;;;;;;5.15;83.80;98769.94;4995986;28;20211;-62
2022/11/26 03:22:06;;;;;;;2.63;2.30;;;;;;;5.14;83.17;98772.56;4996452;28;20175;-62
2022/11/26 03:24:32;;;;;;;2.50;2.30;;;;;;;5.07;83.98;98776.28;4996086;28;20310;-62
2022/11/26 03:26:57;;;;;;;2.10;1.98;;;;;;;5.06;83.88;98788.25;4996388;28;20214;-62
2022/11/26 03:29:23;;;;;;;2.90;2.60;;;;;;;5.10;83.94;98776.97;4996333;28;20172;-62
2022/11/26 03:31:48;;;;;;;2.35;2.13;;;;;;;5.18;82.75;98781.78;4996012;28;20627;-62
2022/11/26 03:34:14;;;;;;;2.40;2.20;;;;;;;5.08;82.45;98771.06;4996235;28;20237;-62
2022/11/26 03:36:39;;;;;;;2.15;1.90;;;;;;;5.14;82.66;98782.81;4995875;28;20180;-62
2022/11/26 03:39:05;;;;;;;2.20;2.08;;;;;;;5.01;83.62;98785.03;4995771;28;20218;-62
2022/11/26 03:41:31;;;;;;;2.80;2.55;;;;;;;4.85;85.14;98794.22;4996339;28;20186;-62
2022/11/26 03:43:56;;;;;;;4.10;3.00;;;;;;;4.91;85.05;98796.53;4995791;28;20172;-62
2022/11/26 03:46:21;;;;;;;3.20;2.90;;;;;;;4.83;85.02;98800.31;4996302;28;20183;-62
2022/11/26 03:48:47;;;;;;;3.10;2.72;;;;;;;4.87;85.20;98809.53;4995932;28;20246;-62
2022/11/26 03:51:12;;;;;;;2.53;2.33;;;;;;;4.97;83.86;98816.84;4995583;28;20255;-62
2022/11/26 03:53:38;;;;;;;2.70;2.50;;;;;;;4.96;83.69;98820.25;4996186;28;20178;-62
2022/11/26 03:56:03;;;;;;;3.10;2.80;;;;;;;4.92;84.38;98823.88;4995599;28;20543;-62
2022/11/26 03:58:29;;;;;;;2.75;2.55;;;;;;;4.85;84.47;98827.53;4995541;28;20176;-62
2022/11/26 04:00:54;;;;;;;4.57;3.50;;;;;;;4.76;85.29;98838.16;4995511;28;20286;-62
2022/11/26 04:03:20;;;;;;;4.38;3.40;;;;;;;4.81;85.47;98832.84;4995622;28;20203;-62
2022/11/26 04:05:45;;;;;;;2.85;2.65;;;;;;;4.72;85.78;98836.59;4995392;28;20535;-62
2022/11/26 04:08:11;;;;;;;4.47;3.00;;;;;;;4.72;86.52;98839.16;4995620;28;20176;-62
2022/11/26 04:10:37;;;;;;;2.70;2.50;;;;;;;4.68;86.85;98842.75;4995546;28;20199;-62
2022/11/26 04:13:03;;;;;;;2.53;2.17;;;;;;;4.71;85.90;98842.63;4995323;28;20174;-62
2022/11/26 04:15:28;;;;;;;2.30;2.10;;;;;;;4.63;85.96;98847.22;4995190;28;20602;-62
2022/11/26 04:17:53;;;;;;;2.10;2.00;;;;;;;4.67;85.98;98846.19;4995158;28;20259;-61
2022/11/26 04:20:19;;;;;;;2.60;2.40;;;;;;;4.66;85.95;98852.22;4994835;28;20630;-62
2022/11/26 04:22:44;;;;;;;2.40;2.20;;;;;;;4.69;85.42;98859.81;4995014;28;20683;-62
2022/11/26 04:25:10;;;;;;;2.40;2.20;;;;;;;4.51;85.88;98837.44;4994961;28;20195;-62
2022/11/26 04:27:36;;;;;;;2.65;2.00;;;;;;;4.67;86.01;98853.06;4994931;28;20258;-62
2022/11/26 04:30:03;;;;;;;2.63;2.42;;;;;;;4.62;85.94;98853.22;4994958;28;20168;-62
2022/11/26 04:32:28;;;;;;;2.50;2.30;;;;;;;4.55;86.06;98853.53;4994907;28;20571;-62
2022/11/26 04:34:54;;;;;;;4.05;2.30;;;;;;;4.57;86.29;98856.84;4995090;28;20180;-62
2022/11/26 04:37:19;;;;;;;2.08;1.92;;;;;;;4.53;86.38;98865.53;4994886;28;20556;-62
2022/11/26 04:39:44;;;;;;;3.17;2.45;;;;;;;4.53;85.88;98860.41;4994707;28;20287;-62
2022/11/26 04:42:10;;;;;;;2.22;2.13;;;;;;;4.53;85.59;98862.97;4994693;28;20660;-62
2022/11/26 04:44:35;;;;;;;2.10;2.00;;;;;;;4.53;85.62;98865.53;4994711;28;20183;-62
2022/11/26 04:47:01;;;;;;;3.30;2.08;;;;;;;4.58;85.48;98867.06;4994904;28;20242;-62
2022/11/26 04:49:26;;;;;;;2.20;2.10;;;;;;;4.60;85.10;98878.06;4994656;28;20170;-62
2022/11/26 04:51:51;;;;;;;2.08;1.98;;;;;;;4.55;85.29;98879.16;4995102;28;20179;-62
2022/11/26 04:54:17;;;;;;;2.63;1.98;;;;;;;4.64;84.96;98883.91;4994447;28;20270;-62
2022/11/26 04:56:42;;;;;;;5.18;2.63;;;;;;;4.53;84.87;98879.19;4994709;28;20191;-62
2022/11/26 04:59:08;;;;;;;2.08;1.98;;;;;;;4.49;85.32;98890.44;4994324;28;20171;-62
2022/11/26 05:01:33;;;;;;;3.55;2.50;;;;;;;4.50;85.02;98881.88;4994576;28;20212;-62
2022/11/26 05:03:59;;;;;;;2.08;1.90;;;;;;;4.51;84.47;98893.81;4994563;28;20558;-62
2022/11/26 05:06:24;;;;;;;2.17;1.98;;;;;;;4.58;84.32;98895.25;4994796;28;20171;-62
2022/11/26 05:08:50;;;;;;;1.90;1.80;;;;;;;4.61;84.02;98905.38;4994182;28;20657;-62
2022/11/26 05:11:15;;;;;;;2.00;1.90;;;;;;;4.61;83.68;98897.69;4994180;28;20217;-62
2022/11/26 05:13:41;;;;;;;2.10;2.00;;;;;;;4.61;84.12;98895.13;4993940;28;20264;-63
2022/11/26 05:16:06;;;;;;;2.00;1.90;;;;;;;4.68;82.66;98898.31;4993942;28;20183;-62
2022/11/26 05:18:32;;;;;;;1.90;1.80;;;;;;;4.75;81.63;98907.44;4994123;28;20621;-62
2022/11/26 05:20:57;;;;;;;2.88;2.58;;;;;;;4.86;81.70;98911.28;4993886;28;20646;-62
2022/11/26 05:23:22;;;;;;;1.98;1.88;;;;;;;4.89;81.17;98920.56;4994217;28;20211;-62
2022/11/26 05:25:49;;;;;;;1.52;1.42;;;;;;;4.80;83.16;98921.75;4994413;28;20176;-62
2022/11/26 05:28:15;;;;;;;1.50;1.40;;;;;;;4.76;82.51;98915.06;4994123;28;20179;-62
2022/11/26 05:30:41;;;;;;;3.08;2.10;;;;;;;4.76;82.20;98915.06;4993796;28;20226;-62
2022/11/26 05:33:06;;;;;;;2.10;2.00;;;;;;;4.77;81.98;98926.13;4993684;28;20179;-62
2022/11/26 05:35:32;;;;;;;1.77;1.67;;;;;;;4.85;80.82;98924.13;4993708;28;20263;-62
2022/11/26 05:37:57;;;;;;;4.35;3.40;;;;;;;4.85;80.66;98929.25;4993644;28;20171;-62
2022/11/26 05:40:22;;;;;;;6.65;3.45;;;;;;;4.81;80.31;98914.88;4993533;28;20628;-62
2022/11/26 05:42:48;;;;;;;2.70;2.30;;;;;;;4.81;80.24;98920.84;4993841;28;20203;-62
2022/11/26 05:45:14;;;;;;;2.13;2.03;;;;;;;4.81;80.25;98925.97;4993508;28;20607;-62
2022/11/26 05:47:40;;;;;;;1.88;1.77;;;;;;;4.72;80.06;98918.63;4993485;28;20684;-62
2022/11/26 05:50:06;;;;;;;1.90;1.80;;;;;;;4.69;80.61;98929.00;4993705;28;20176;-62
2022/11/26 05:52:31;;;;;;;2.13;1.92;;;;;;;4.70;81.02;98929.81;4993444;28;20176;-62
2022/11/26 05:54:57;;;;;;;2.00;1.90;;;;;;;4.72;81.30;98930.63;4993639;28;20180;-62
2022/11/26 05:57:22;;;;;;;2.60;2.10;;;;;;;4.81;79.61;98938.81;4994134;28;20183;-62
2022/11/26 05:59:48;;;;;;;2.08;1.98;;;;;;;4.86;79.93;98939.47;4993226;28;20631;-62
2022/11/26 06:02:13;;;;;;;2.50;2.20;;;;;;;4.90;78.70;98941.00;4993453;28;20184;-63
2022/11/26 06:04:39;;;;;;;2.00;1.90;;;;;;;4.94;78.43;98942.56;4993224;28;20570;-62
2022/11/26 06:07:04;;;;;;;1.95;1.77;;;;;;;5.07;78.20;98950.66;4993410;28;20687;-62
2022/11/26 06:09:29;;;;;;;2.40;2.20;;;;;;;5.14;77.88;98950.34;4993128;28;20250;-63
2022/11/26 06:11:55;;;;;;;3.45;2.70;;;;;;;5.16;78.22;98953.69;4993614;28;20553;-63
2022/11/26 06:14:20;;;;;;;2.55;2.35;;;;;;;5.21;77.84;98954.34;4992950;28;20175;-63
2022/11/26 06:16:46;;;;;;;3.90;3.00;;;;;;;5.33;77.08;98959.00;4991770;28;20175;-63
2022/11/26 06:19:11;;;;;;;2.78;2.58;;;;;;;5.27;76.55;98956.69;4992701;28;20187;-63
2022/11/26 06:21:37;;;;;;;2.17;2.08;;;;;;;5.30;77.01;98953.97;4992971;28;20175;-62
2022/11/26 06:24:02;;;;;;;3.28;2.97;;;;;;;5.47;76.28;98956.72;4992599;28;20190;-63
2022/11/26 06:26:49;;;;;;;5.28;3.95;;;;;;;5.43;76.15;98960.31;5368668;23;20203;-55
2022/11/26 06:29:15;;;;;;;3.20;2.90;;;;;;;5.55;76.74;98964.13;5010571;28;20234;-56
2022/11/26 06:31:40;;;;;;;14.50;7.13;;;;;;;5.71;77.03;98965.19;5012420;28;20374;-57
2022/11/26 06:34:06;;;;;;;8.15;4.03;;;;;;;5.77;75.43;98963.19;5012729;28;20683;-56
2022/11/26 06:36:31;;;;;;;4.75;2.63;;;;;;;5.80;73.69;98970.81;5012636;28;20547;-56
2022/11/26 06:38:57;;;;;;;4.65;3.33;;;;;;;5.85;72.82;98961.22;5012655;28;20583;-57
2022/11/26 06:41:22;;;;;;;3.10;2.80;;;;;;;5.90;72.64;98961.00;5012196;28;20190;-57
2022/11/26 06:43:47;;;;;;;2.80;2.42;;;;;;;5.94;72.55;98963.38;5012882;28;20267;-57
2022/11/26 06:46:13;;;;;;;2.05;1.95;;;;;;;5.81;72.04;98964.78;5013040;28;20265;-57
2022/11/26 06:48:39;;;;;;;2.15;2.05;;;;;;;5.87;71.23;98972.25;5012074;28;20186;-57
2022/11/26 06:51:07;;;;;;;1.85;1.75;;;;;;;5.90;71.47;98981.56;5012467;28;20171;-57
2022/11/26 06:53:32;;;;;;;2.55;2.05;;;;;;;5.90;71.23;98972.09;5012239;28;20175;-57
2022/11/26 06:56:03;;;;;;;3.78;2.00;;;;;;;5.92;71.62;98979.75;5008986;28;20182;-57
2022/11/26 06:58:29;;;;;;;1.90;1.80;;;;;;;5.89;71.68;98980.69;5010786;28;20163;-55
2022/11/26 07:00:55;;;;;;;2.08;1.90;;;;;;;5.87;71.98;98986.81;5012351;28;20321;-55
2022/11/26 07:03:20;;;;;;;1.92;1.83;;;;;;;5.85;71.81;98992.03;5012353;28;20316;-55
2022/11/26 07:05:46;;;;;;;1.80;1.70;;;;;;;5.83;71.75;98991.22;5012089;28;20674;-55
2022/11/26 07:08:11;;;;;;;1.88;1.77;;;;;;;5.85;72.47;98998.88;5011828;28;20175;-56
2022/11/26 07:10:37;;;;;;;1.83;1.60;;;;;;;5.86;71.75;98997.97;5011215;28;20183;-56
2022/11/26 07:13:02;;;;;;;2.05;1.80;;;;;;;6.01;71.75;99003.31;5011040;28;20175;-55
2022/11/26 07:15:28;;;;;;;2.85;2.13;;;;;;;6.14;71.14;99001.09;5012045;28;20163;-55
2022/11/26 07:17:53;;;;;;;2.55;2.05;;;;;;;6.24;70.60;98997.25;5012058;28;20179;-56
2022/11/26 07:20:18;;;;;;;2.25;2.13;;;;;;;6.35;69.94;99005.34;5011851;28;20297;-55
2022/11/26 07:22:44;;;;;;;2.25;2.05;;;;;;;6.35;69.31;99006.16;5011967;28;20186;-56
2022/11/26 07:25:10;;;;;;;5.82;3.95;;;;;;;6.35;69.53;99006.16;5012705;28;20612;-55
2022/11/26 07:27:35;;;;;;;7.13;3.42;;;;;;;6.39;69.80;98997.44;5011713;28;20223;-55
2022/11/26 07:30:00;;;;;;;3.78;3.40;;;;;;;6.54;69.16;99001.91;5011819;28;20616;-56
2022/11/26 07:32:28;;;;;;;4.57;3.10;;;;;;;6.50;69.10;98994.41;5011819;28;20178;-55
2022/11/26 07:34:54;;;;;;;7.18;3.90;;;;;;;6.66;68.49;98995.41;5012400;28;20175;-55
2022/11/26 07:37:19;;;;;;;2.65;2.33;;;;;;;6.85;67.07;98996.25;5012242;28;20170;-56
2022/11/26 07:39:46;;;;;;;3.50;2.88;;;;;;;6.73;66.86;98978.81;5015655;28;20668;-56
2022/11/26 07:42:12;;;;;;;3.40;2.60;;;;;;;6.87;66.60;98994.47;5015665;28;20609;-56
2022/11/26 07:44:38;;;;;;;3.35;2.60;;;;;;;6.93;66.15;98992.44;5015326;28;20181;-56
2022/11/26 07:47:04;;;;;;;3.22;2.53;;;;;;;6.99;65.95;98975.91;5015283;28;20175;-56
2022/11/26 07:49:29;;;;;;;5.78;3.63;;;;;;;7.13;65.63;98986.41;5015531;28;20611;-56
2022/11/26 07:51:55;;;;;;;6.68;4.18;;;;;;;7.27;64.66;98984.88;5015504;28;20175;-56
2022/11/26 07:54:20;;;;;;;8.23;4.18;;;;;;;7.37;64.27;98988.69;5015130;28;20652;-57
2022/11/26 07:56:46;;;;;;;4.38;2.53;;;;;;;7.48;63.88;98988.19;5013803;28;20171;-55
2022/11/26 07:59:11;;;;;;;2.53;1.90;;;;;;;7.61;62.90;98991.84;5015152;28;20174;-58
2022/11/26 08:01:37;;;;;;;3.80;2.42;;;;;;;7.71;62.97;98988.78;5014984;28;20671;-56
2022/11/26 08:04:04;;;;;;;6.75;4.50;;;;;;;7.82;63.36;98990.84;5015529;28;20202;-56
2022/11/26 08:06:31;;;;;;;2.85;2.58;;;;;;;7.98;61.98;98991.78;5015204;28;20586;-56
2022/11/26 08:09:01;;;;;;;2.95;2.38;;;;;;;8.14;61.17;98995.25;5015162;28;20175;-56
2022/11/26 08:11:28;;;;;;;2.53;2.33;;;;;;;8.14;61.32;98972.88;5015371;28;20175;-56
2022/11/26 08:13:57;;;;;;;2.25;2.05;;;;;;;8.39;61.23;99004.28;5014762;28;20175;-56
2022/11/26 08:16:22;;;;;;;2.20;2.03;;;;;;;8.51;60.57;98998.50;5015263;28;20183;-56
2022/11/26 08:18:51;;;;;;;11.25;3.55;;;;;;;8.70;59.94;99001.00;5014733;28;20167;-56
2022/11/26 08:21:16;;;;;;;3.45;3.05;;;;;;;8.86;59.50;98996.72;5014841;28;20622;-56
2022/11/26 08:23:42;;;;;;;4.55;3.00;;;;;;;8.99;59.16;99001.16;5014694;28;20282;-56
2022/11/26 08:26:10;;;;;;;3.90;2.67;;;;;;;9.10;58.56;98993.66;5015145;28;20182;-57
2022/11/26 08:28:35;;;;;;;3.65;3.00;;;;;;;9.32;57.17;98998.50;5014398;28;20269;-57
2022/11/26 08:31:07;;;;;;;4.80;3.00;;;;;;;9.46;56.93;99002.00;5014507;28;20168;-57
2022/11/26 08:33:33;;;;;;;8.45;3.85;;;;;;;9.56;57.08;99003.16;5014371;28;20209;-57
2022/11/26 08:36:00;;;;;;;13.45;3.30;;;;;;;9.67;57.48;99003.41;5014684;28;20175;-57
2022/11/26 08:38:27;;;;;;;6.53;2.85;;;;;;;9.80;56.88;99009.56;5014906;28;20171;-57
2022/11/26 08:40:53;;;;;;;5.35;3.60;;;;;;;9.88;55.92;99003.03;5014505;28;20202;-57
2022/11/26 08:43:22;;;;;;;4.53;2.67;;;;;;;9.99;54.96;99010.19;5014511;28;20175;-57
2022/11/26 08:45:56;;;;;;;6.45;3.05;;;;;;;10.07;54.29;99009.81;5014276;28;20207;-58
2022/11/26 08:48:23;;;;;;;4.70;2.80;;;;;;;10.13;54.61;99005.09;5014125;28;20586;-58
2022/11/26 08:50:48;;;;;;;13.90;7.47;;;;;;;10.27;53.96;99005.16;5013311;28;20258;-57
2022/11/26 08:53:14;;;;;;;13.65;8.30;;;;;;;10.32;54.09;99003.09;5014017;28;20270;-57
2022/11/26 08:55:40;;;;;;;26.67;14.45;;;;;;;10.40;53.94;99006.91;5014544;28;20178;-57
2022/11/26 08:58:05;;;;;;;30.92;15.27;;;;;;;10.49;53.79;99023.66;5013999;28;20175;-57
2022/11/26 09:00:31;;;;;;;10.32;6.20;;;;;;;10.54;53.56;99011.28;5014183;28;20191;-57
2022/11/26 09:02:56;;;;;;;4.80;3.22;;;;;;;10.65;53.05;99016.66;5014180;28;20175;-57
2022/11/26 09:05:21;;;;;;;3.20;2.90;;;;;;;10.73;52.30;99019.66;5014156;28;20176;-57
2022/11/26 09:07:47;;;;;;;3.58;3.15;;;;;;;10.83;51.66;99020.75;5014083;28;20648;-57
2022/11/26 09:10:12;;;;;;;7.30;3.58;;;;;;;10.89;51.59;99025.56;5014035;28;20175;-56
2022/11/26 09:12:38;;;;;;;3.28;2.97;;;;;;;10.99;51.95;99024.09;5013737;28;20167;-57
2022/11/26 09:15:03;;;;;;;8.80;3.38;;;;;;;11.08;51.93;99026.13;5013914;28;20313;-57
2022/11/26 09:17:29;;;;;;;5.68;3.65;;;;;;;11.12;51.85;99027.59;5013927;28;20353;-56
2022/11/26 09:19:55;;;;;;;5.80;4.30;;;;;;;11.17;52.26;99020.38;5013523;28;20667;-56
2022/11/26 09:22:21;;;;;;;8.70;5.55;;;;;;;11.27;53.03;99021.50;5005759;28;20186;-56
2022/11/26 09:24:47;;;;;;;7.65;5.00;;;;;;;11.26;52.75;99020.63;5001883;28;20179;-57
2022/11/26 09:27:12;;;;;;;10.15;4.75;;;;;;;11.27;52.40;99026.66;5000109;28;20171;-56
2022/11/26 09:29:37;;;;;;;10.55;5.38;;;;;;;11.24;52.26;99026.84;5013262;28;20190;-55
2022/11/26 09:32:03;;;;;;;4.55;3.92;;;;;;;11.27;51.93;99021.50;5013234;28;20186;-55
2022/11/26 09:34:28;;;;;;;6.40;4.20;;;;;;;11.30;51.93;99016.09;5013258;28;20645;-56
2022/11/26 09:36:54;;;;;;;7.55;4.80;;;;;;;11.30;51.63;99010.91;5013175;28;20183;-56
2022/11/26 09:39:19;;;;;;;26.85;6.25;;;;;;;11.28;51.95;99002.41;5013123;28;20175;-56
2022/11/26 09:42:04;;;;;;;9.57;4.53;;;;;;;11.32;52.45;98996.13;5005936;28;20218;-56
2022/11/26 09:45:01;;;;;;;7.00;4.60;;;;;;;11.32;52.41;99004.72;4993665;28;20664;-56
2022/11/26 09:47:35;;;;;;;4.47;3.85;;;;;;;11.36;52.27;99002.75;4993407;28;20649;-57
2022/11/26 09:50:09;;;;;;;4.80;4.20;;;;;;;11.41;51.60;99000.72;4991731;28;20185;-56
2022/11/26 09:52:40;;;;;;;6.40;3.97;;;;;;;11.45;51.55;98992.66;4991991;28;20276;-56
2022/11/26 09:55:08;;;;;;;7.68;4.18;;;;;;;11.52;50.86;98985.34;4993514;28;20172;-56
2022/11/26 09:57:42;;;;;;;6.55;4.45;;;;;;;11.56;50.70;98981.63;4993126;28;20180;-56
2022/11/26 10:00:36;;;;;;;7.15;4.28;;;;;;;11.63;50.95;98975.16;4991480;28;20417;-56
2022/11/26 10:03:29;;;;;;;7.97;4.72;;;;;;;11.71;51.14;98980.66;4993186;28;20183;-56
2022/11/26 10:05:54;;;;;;;5.22;4.03;;;;;;;11.75;50.83;98976.97;4993093;28;20269;-56
2022/11/26 10:08:46;;;;;;;8.55;4.50;;;;;;;11.74;50.49;98973.53;4993009;28;20645;-56
2022/11/26 10:11:32;;;;;;;7.82;4.57;;;;;;;11.75;50.42;98969.19;4993181;28;20170;-56
2022/11/26 10:14:31;;;;;;;15.90;11.88;;;;;;;11.81;50.58;98967.03;4993111;28;20163;-56
2022/11/26 10:17:18;;;;;;;12.73;5.57;;;;;;;11.85;50.76;98965.91;4992849;28;20199;-56
2022/11/26 10:20:16;;;;;;;8.50;5.25;;;;;;;11.88;51.06;98963.13;4993233;28;20192;-56
2022/11/26 10:22:59;;;;;;;4.82;4.22;;;;;;;11.92;51.22;98963.75;4984139;28;20195;-56
2022/11/26 10:25:32;;;;;;;7.63;4.50;;;;;;;11.90;51.38;98960.44;4993492;28;20167;-56
2022/11/26 10:27:59;;;;;;;5.03;3.53;;;;;;;11.91;51.11;98949.13;4992398;28;20187;-56
2022/11/26 10:30:27;;;;;;;4.82;3.75;;;;;;;12.01;50.91;98955.38;4993128;28;20179;-56
2022/11/26 10:32:54;;;;;;;4.80;4.22;;;;;;;12.11;51.27;98956.41;4992834;28;20664;-56
2022/11/26 10:35:26;;;;;;;4.20;3.75;;;;;;;12.25;50.31;98954.56;4992878;28;20680;-56
2022/11/26 10:37:54;;;;;;;7.03;3.88;;;;;;;12.29;50.47;98950.84;5008083;28;20172;-56
2022/11/26 10:40:28;;;;;;;9.43;8.55;;;;;;;12.28;49.98;98956.13;4992456;28;20196;-56
2022/11/26 10:43:23;;;;;;;10.15;4.05;;;;;;;12.45;50.00;98959.28;4992497;28;20184;-56
2022/11/26 10:45:54;;;;;;;2.92;2.72;;;;;;;12.63;48.46;98950.25;4987821;28;20199;-56
2022/11/26 10:48:34;;;;;;;4.35;3.13;;;;;;;12.71;48.49;98944.53;4992862;28;20183;-56
2022/11/26 10:50:59;;;;;;;3.60;3.10;;;;;;;12.68;49.48;98955.09;4992520;28;20543;-56
2022/11/26 10:53:26;;;;;;;6.85;3.20;;;;;;;12.70;49.72;98948.03;4992351;28;20180;-56
2022/11/26 10:55:56;;;;;;;5.68;3.60;;;;;;;12.71;50.29;98949.72;4992764;28;20254;-56
2022/11/26 10:58:29;;;;;;;56.03;21.42;;;;;;;12.78;50.37;98938.78;4992386;28;20179;-56
2022/11/26 11:01:05;;;;;;;26.45;9.43;;;;;;;12.83;50.35;98941.09;4992621;28;20192;-56
2022/11/26 11:03:38;;;;;;;54.55;10.60;;;;;;;12.90;49.34;98944.91;4992180;28;20171;-56
2022/11/26 11:06:18;;;;;;;6.07;3.42;;;;;;;13.04;47.43;98947.41;4992310;28;20319;-56
2022/11/26 11:08:50;;;;;;;20.58;10.35;;;;;;;13.05;47.45;98942.09;4992381;28;20179;-56
2022/11/26 11:11:21;;;;;;;10.65;5.10;;;;;;;13.04;46.88;98937.00;4992402;28;20239;-56
2022/11/26 11:13:47;;;;;;;10.13;6.07;;;;;;;13.15;48.20;98948.31;4995308;28;20255;-56
2022/11/26 11:16:18;;;;;;;46.55;18.65;;;;;;;13.16;47.81;98947.38;4996297;28;20184;-56
2022/11/26 11:18:54;;;;;;;20.50;9.73;;;;;;;13.12;48.10;98943.31;4996296;28;20187;-56
2022/11/26 11:21:20;;;;;;;12.65;6.18;;;;;;;13.18;47.65;98940.28;4999341;28;20221;-56
2022/11/26 11:23:47;;;;;;;3.70;3.35;;;;;;;13.18;46.99;98939.50;5003256;28;20285;-56
2022/11/26 11:26:20;;;;;;;4.03;3.08;;;;;;;13.17;46.68;98932.59;5009913;28;20183;-55
2022/11/26 11:28:49;;;;;;;3.22;2.92;;;;;;;12.80;47.48;98917.91;5010484;28;20283;-55
2022/11/26 11:31:25;;;;;;;3.33;2.70;;;;;;;12.73;48.49;98925.28;5015328;28;20171;-56
2022/11/26 11:34:11;;;;;;;3.38;3.05;;;;;;;12.56;48.89;98927.38;5014407;28;20786;-55
2022/11/26 11:36:37;;;;;;;5.53;2.42;;;;;;;12.44;49.69;98926.44;5015371;28;20174;-55
2022/11/26 11:39:04;;;;;;;5.05;2.55;;;;;;;12.22;50.30;98922.81;5015443;28;20178;-56
2022/11/26 11:41:32;;;;;;;6.25;3.25;;;;;;;12.17;51.37;98917.09;5015299;28;20226;-54
2022/11/26 11:44:02;;;;;;;4.10;3.45;;;;;;;12.19;51.03;98913.47;5015216;28;20179;-56
2022/11/26 11:46:42;;;;;;;7.57;3.35;;;;;;;11.91;52.52;98912.81;5014212;28;20171;-56